Time;durP1;ratioP1;P1;durP2;ratioP2;P2;SDS_P1;SDS_P2;PMS_P1;PMS_P2;Temp;Humidity;BMP_temperature;BMP_pressure;BME280_temperature;BME280_humidity;BME280_pressure;Samples;Min_cycle;Max_cycle;Signal;HPM_P1;HPM_P2
2022/11/12 00:00:04;;;;;;;23.23;18.02;;;;;;;7.31;100.00;103031.16;5298003;28;20031;-79
2022/11/12 00:02:35;;;;;;;19.23;16.17;;;;;;;7.27;100.00;103026.94;5295576;28;20075;-79
2022/11/12 00:05:07;;;;;;;24.80;17.50;;;;;;;7.34;100.00;103034.53;5296550;28;20535;-79
2022/11/12 00:07:38;;;;;;;22.00;16.05;;;;;;;7.29;100.00;103043.38;5296892;28;20142;-79
2022/11/12 00:10:09;;;;;;;25.15;18.77;;;;;;;7.34;100.00;103040.59;5297574;28;20024;-79
2022/11/12 00:12:41;;;;;;;21.95;17.15;;;;;;;7.26;100.00;103042.63;5297752;28;20472;-79
2022/11/12 00:15:12;;;;;;;20.77;16.92;;;;;;;7.28;100.00;103049.50;5270673;28;20032;-79
2022/11/12 00:17:44;;;;;;;21.00;17.45;;;;;;;7.29;100.00;103040.75;5297544;28;20027;-79
2022/11/12 00:20:15;;;;;;;21.42;18.13;;;;;;;7.30;100.00;103041.59;5298586;28;20028;-79
2022/11/12 00:22:46;;;;;;;23.95;18.08;;;;;;;7.31;100.00;103036.34;5298280;28;20047;-79
2022/11/12 00:25:17;;;;;;;22.65;17.60;;;;;;;7.30;100.00;103054.66;5296717;28;20031;-79
2022/11/12 00:27:49;;;;;;;22.42;18.00;;;;;;;7.29;100.00;103045.97;5298062;28;20168;-79
2022/11/12 00:30:20;;;;;;;22.33;16.60;;;;;;;7.26;100.00;103055.66;5296385;28;20392;-79
2022/11/12 00:32:51;;;;;;;20.73;17.48;;;;;;;7.25;100.00;103053.97;5297117;28;20077;-79
2022/11/12 00:35:22;;;;;;;23.90;19.05;;;;;;;7.29;100.00;103056.41;5270332;28;20040;-79
2022/11/12 00:37:55;;;;;;;21.10;16.98;;;;;;;7.23;100.00;103061.81;5295214;28;20032;-79
2022/11/12 00:40:27;;;;;;;23.67;17.10;;;;;;;7.18;100.00;103053.31;5295961;28;20047;-79
2022/11/12 00:42:58;;;;;;;19.50;16.30;;;;;;;7.13;100.00;103057.00;5296275;28;20039;-79
2022/11/12 00:45:30;;;;;;;20.75;16.73;;;;;;;7.16;100.00;103051.66;5297952;28;20068;-79
2022/11/12 00:48:01;;;;;;;22.15;16.38;;;;;;;7.05;100.00;103050.31;5296617;28;20092;-79
2022/11/12 00:50:32;;;;;;;21.05;16.90;;;;;;;7.05;100.00;103042.50;5295859;28;20024;-79
2022/11/12 00:53:03;;;;;;;19.77;16.23;;;;;;;7.05;100.00;103052.91;5295993;28;20085;-79
2022/11/12 00:55:35;;;;;;;19.90;16.60;;;;;;;6.98;100.00;103048.81;5274026;28;20063;-79
2022/11/12 00:58:06;;;;;;;19.95;16.55;;;;;;;6.97;100.00;103047.13;5295615;28;20020;-79
2022/11/12 01:00:38;;;;;;;19.80;16.67;;;;;;;6.94;100.00;103044.63;5303942;28;20229;-79
2022/11/12 01:03:09;;;;;;;21.70;17.02;;;;;;;6.93;100.00;103042.91;5304243;28;20032;-79
2022/11/12 01:05:40;;;;;;;21.25;16.42;;;;;;;6.90;100.00;103044.78;5302598;28;20053;-79
2022/11/12 01:08:11;;;;;;;19.95;16.60;;;;;;;6.83;100.00;103047.56;5300261;28;20024;-79
2022/11/12 01:10:43;;;;;;;19.35;15.70;;;;;;;6.84;100.00;103043.22;5293998;28;20024;-79
2022/11/12 01:13:14;;;;;;;19.08;16.05;;;;;;;6.87;100.00;103037.06;5295171;28;20023;-79
2022/11/12 01:15:45;;;;;;;19.20;16.20;;;;;;;6.81;100.00;103045.91;5295776;28;20378;-79
2022/11/12 01:18:16;;;;;;;18.70;15.13;;;;;;;6.76;100.00;103030.44;5297754;28;20440;-79
2022/11/12 01:20:48;;;;;;;18.85;14.82;;;;;;;6.75;100.00;103035.72;5270375;28;20023;-79
2022/11/12 01:23:19;;;;;;;17.90;15.07;;;;;;;6.65;100.00;103032.56;5292790;28;20035;-79
2022/11/12 01:25:50;;;;;;;17.02;14.63;;;;;;;6.70;100.00;103040.22;5295017;28;20462;-79
2022/11/12 01:28:21;;;;;;;18.80;15.57;;;;;;;6.66;100.00;103036.84;5296848;28;20484;-79
2022/11/12 01:30:53;;;;;;;20.25;15.07;;;;;;;6.69;100.00;103041.13;5295052;28;20025;-79
2022/11/12 01:33:24;;;;;;;18.92;14.25;;;;;;;6.65;100.00;103042.13;5295170;28;20024;-79
2022/11/12 01:35:58;;;;;;;18.00;15.10;;;;;;;6.65;100.00;103042.13;5295780;28;20024;-79
2022/11/12 01:38:33;;;;;;;17.25;14.80;;;;;;;6.62;100.00;103031.81;5295385;28;20032;-79
2022/11/12 01:41:06;;;;;;;17.48;14.10;;;;;;;6.53;100.00;103033.81;5296475;28;20505;-79
2022/11/12 01:43:37;;;;;;;21.50;15.10;;;;;;;6.50;100.00;103028.69;5300783;28;20318;-79
2022/11/12 01:46:26;;;;;;;18.00;13.82;;;;;;;6.66;100.00;103033.41;5299330;28;20089;-79
2022/11/12 01:49:01;;;;;;;17.63;14.27;;;;;;;6.48;100.00;103029.69;5299907;28;20580;-79
2022/11/12 01:51:38;;;;;;;17.75;13.88;;;;;;;6.44;100.00;103025.44;5299497;28;20168;-79
2022/11/12 01:54:13;;;;;;;17.83;14.45;;;;;;;6.40;100.00;103035.09;5299361;28;20477;-79
2022/11/12 01:56:46;;;;;;;20.23;14.68;;;;;;;6.30;100.00;103024.16;5301445;28;20107;-79
2022/11/12 01:59:31;;;;;;;15.05;13.23;;;;;;;6.49;100.00;103028.78;5298594;28;20028;-79
2022/11/12 02:02:02;;;;;;;17.50;14.00;;;;;;;6.25;100.00;103028.66;5299559;28;20093;-79
2022/11/12 02:04:37;;;;;;;16.77;13.35;;;;;;;6.33;100.00;103028.41;5299266;28;20028;-79
2022/11/12 02:07:09;;;;;;;19.90;14.32;;;;;;;6.20;100.00;103030.53;5297512;28;20024;-79
2022/11/12 02:09:40;;;;;;;18.27;14.73;;;;;;;6.26;100.00;103026.91;5299772;28;20020;-79
2022/11/12 02:13:56;;;;;;;16.58;14.52;;;;;;;6.24;100.00;103020.88;5298921;28;20135;-78
2022/11/12 02:15:03;;;;;;;14.82;13.25;;;;;;;6.18;100.00;103008.94;5297795;28;20059;-79
2022/11/12 02:17:35;;;;;;;16.48;13.35;;;;;;;6.21;100.00;103021.84;5298877;28;20126;-79
2022/11/12 02:20:13;;;;;;;18.92;13.70;;;;;;;6.36;100.00;103025.69;5298468;28;20024;-79
2022/11/12 02:22:44;;;;;;;16.27;12.60;;;;;;;6.17;100.00;103027.19;5296245;28;20089;-78
2022/11/12 02:25:19;;;;;;;16.77;13.50;;;;;;;6.21;100.00;103031.38;5300356;28;20036;-79
2022/11/12 02:27:54;;;;;;;16.45;14.00;;;;;;;6.18;100.00;103028.91;5298125;28;20028;-79
2022/11/12 02:30:46;;;;;;;16.98;14.15;;;;;;;6.36;100.00;103017.88;5298564;28;20499;-79
2022/11/12 02:33:17;;;;;;;16.60;14.63;;;;;;;6.08;100.00;103021.38;5298197;28;20493;-79
2022/11/12 02:35:49;;;;;;;17.05;14.07;;;;;;;6.09;100.00;103019.59;5297986;28;20031;-79
2022/11/12 02:38:20;;;;;;;16.33;14.07;;;;;;;6.11;100.00;103019.59;5284486;28;20032;-78
2022/11/12 02:40:51;;;;;;;23.20;14.55;;;;;;;6.00;100.00;103007.75;5308257;28;20052;-78
2022/11/12 02:43:23;;;;;;;17.70;14.50;;;;;;;6.00;100.00;103017.31;5309496;28;20058;-78
2022/11/12 02:45:54;;;;;;;17.23;13.73;;;;;;;6.00;100.00;103007.75;5307835;28;20028;-78
2022/11/12 02:48:25;;;;;;;16.30;14.07;;;;;;;6.00;100.00;103009.50;5307660;28;20130;-78
2022/11/12 02:50:57;;;;;;;17.30;13.88;;;;;;;6.03;100.00;103009.41;5308170;28;20044;-78
2022/11/12 02:53:28;;;;;;;17.80;13.70;;;;;;;6.04;100.00;103009.34;5306381;28;20123;-78
2022/11/12 02:56:00;;;;;;;16.13;13.93;;;;;;;6.02;100.00;103011.16;5307988;28;20434;-78
2022/11/12 02:58:32;;;;;;;15.95;12.43;;;;;;;5.98;100.00;102998.28;5305242;28;20047;-77
2022/11/12 03:01:03;;;;;;;18.45;14.07;;;;;;;5.98;100.00;102995.66;5306414;28;20075;-78
2022/11/12 03:03:34;;;;;;;19.38;13.00;;;;;;;5.96;100.00;102992.28;5308363;28;20020;-78
2022/11/12 03:06:06;;;;;;;16.55;13.23;;;;;;;5.96;100.00;102995.72;5304450;28;20039;-78
2022/11/12 03:08:37;;;;;;;15.18;12.88;;;;;;;5.91;100.00;102999.31;5307770;28;20107;-78
2022/11/12 03:11:11;;;;;;;15.07;12.68;;;;;;;5.91;100.00;103000.19;5307615;28;20039;-78
2022/11/12 03:13:42;;;;;;;14.77;12.18;;;;;;;5.86;100.00;103000.31;5302815;28;20545;-78
2022/11/12 03:16:14;;;;;;;17.95;13.18;;;;;;;5.80;100.00;102995.31;5306537;28;20362;-78
2022/11/12 03:18:45;;;;;;;16.95;13.57;;;;;;;5.78;100.00;102996.25;5307475;28;20032;-78
2022/11/12 03:21:16;;;;;;;14.00;11.85;;;;;;;5.83;100.00;103018.66;5306122;28;20020;-78
2022/11/12 03:23:47;;;;;;;18.42;13.30;;;;;;;5.83;100.00;103016.03;5303676;28;20028;-78
2022/11/12 03:26:19;;;;;;;13.80;12.38;;;;;;;5.76;100.00;103011.91;5307585;28;20049;-78
2022/11/12 03:28:50;;;;;;;15.02;12.43;;;;;;;5.73;100.00;103021.56;5305856;28;20115;-78
2022/11/12 03:31:22;;;;;;;15.27;12.40;;;;;;;5.70;100.00;103011.25;5307151;28;20040;-78
2022/11/12 03:33:53;;;;;;;16.77;12.90;;;;;;;5.69;100.00;103018.19;5305295;28;20064;-78
2022/11/12 03:36:24;;;;;;;14.95;13.00;;;;;;;5.69;100.00;103013.00;5305578;28;20057;-78
2022/11/12 03:38:55;;;;;;;16.98;12.70;;;;;;;5.71;100.00;103007.72;5305163;28;20073;-78
2022/11/12 03:41:27;;;;;;;14.77;12.40;;;;;;;5.67;100.00;103019.97;5279929;28;20024;-78
2022/11/12 03:43:58;;;;;;;14.32;12.15;;;;;;;5.68;100.00;103016.47;5306458;28;20036;-78
2022/11/12 03:46:29;;;;;;;15.60;12.30;;;;;;;5.66;100.00;103020.03;5305321;28;21442;-78
2022/11/12 03:49:01;;;;;;;15.30;11.95;;;;;;;5.68;100.00;103023.41;5305791;28;20039;-78
2022/11/12 03:51:32;;;;;;;13.18;11.23;;;;;;;5.54;100.00;103006.50;5299155;28;20492;-75
2022/11/12 03:54:04;;;;;;;13.88;11.82;;;;;;;5.68;100.00;103026.03;5296100;28;20028;-76
2022/11/12 03:56:35;;;;;;;14.60;11.73;;;;;;;5.67;100.00;103025.19;5295542;28;20072;-76
2022/11/12 03:59:06;;;;;;;12.55;10.77;;;;;;;5.64;100.00;103019.22;5296536;28;20031;-76
2022/11/12 04:01:38;;;;;;;15.40;11.13;;;;;;;5.58;100.00;103015.06;5297347;28;20024;-75
2022/11/12 04:04:09;;;;;;;13.57;11.10;;;;;;;5.58;100.00;103018.50;5296711;28;20060;-76
2022/11/12 04:09:30;;;;;;;13.18;11.25;;;;;;;5.59;100.00;103017.59;5296381;28;20123;-76
2022/11/12 04:13:26;;;;;;;15.52;10.27;;;;;;;5.60;100.00;103014.09;5302892;28;20541;-78
2022/11/12 04:14:53;;;;;;;11.43;9.85;;;;;;;5.56;100.00;103004.69;5302947;28;20028;-78
2022/11/12 04:23:03;;;;;;;10.90;9.75;;;;;;;5.49;100.00;102986.69;5302863;28;20040;-78
2022/11/12 04:28:24;;;;;;;12.32;10.38;;;;;;;5.53;100.00;102996.13;5297163;28;20536;-76
2022/11/12 04:30:56;;;;;;;13.30;10.43;;;;;;;5.52;100.00;102981.41;5296146;28;20110;-76
2022/11/12 04:33:27;;;;;;;16.33;9.70;;;;;;;5.53;100.00;102986.59;5295774;28;20081;-76
2022/11/12 04:35:58;;;;;;;13.20;9.82;;;;;;;5.47;100.00;102991.97;5298628;28;20404;-76
2022/11/12 04:38:29;;;;;;;12.32;9.52;;;;;;;5.42;100.00;102990.38;5295096;28;20113;-75
2022/11/12 04:46:41;;;;;;;10.35;9.25;;;;;;;5.39;100.00;102998.28;5296936;28;20024;-76
2022/11/12 04:49:12;;;;;;;10.00;8.82;;;;;;;5.34;100.00;102995.78;5267016;28;20032;-76
2022/11/12 04:54:33;;;;;;;11.15;9.10;;;;;;;5.30;100.00;102994.19;5294760;28;20047;-76
2022/11/12 04:57:05;;;;;;;12.98;9.30;;;;;;;5.31;100.00;102985.50;5294659;28;20024;-76
2022/11/12 04:59:36;;;;;;;13.10;9.43;;;;;;;5.25;100.00;102983.06;5293612;28;20036;-75
2022/11/12 05:02:07;;;;;;;12.13;9.50;;;;;;;5.28;100.00;102980.38;5292790;28;20026;-76
2022/11/12 05:04:38;;;;;;;11.45;9.07;;;;;;;5.26;100.00;102976.97;5295829;28;20493;-79
2022/11/12 05:07:11;;;;;;;12.70;9.00;;;;;;;5.26;100.00;102980.41;5303455;28;20088;-78
2022/11/12 05:09:42;;;;;;;13.40;9.63;;;;;;;5.22;100.00;102972.75;5305618;28;20016;-78
2022/11/12 05:12:13;;;;;;;11.38;8.95;;;;;;;5.26;100.00;102971.78;5301983;28;20024;-78
2022/11/12 05:14:45;;;;;;;10.98;8.10;;;;;;;5.24;100.00;102971.81;5303458;28;20032;-78
2022/11/12 05:17:16;;;;;;;10.45;8.80;;;;;;;5.23;100.00;102971.88;5308214;28;20024;-78
2022/11/12 05:19:47;;;;;;;11.25;8.65;;;;;;;5.26;100.00;102969.16;5300516;28;20028;-76
2022/11/12 05:22:18;;;;;;;9.98;8.90;;;;;;;5.26;100.00;102974.38;5299462;28;20035;-76
2022/11/12 05:24:50;;;;;;;11.00;8.65;;;;;;;5.25;100.00;102967.47;5301082;28;20432;-76
2022/11/12 05:27:21;;;;;;;10.45;8.50;;;;;;;5.20;100.00;102958.97;5300091;28;20662;-75
2022/11/12 05:29:52;;;;;;;10.15;8.68;;;;;;;5.22;100.00;102960.59;5299837;28;20455;-75
2022/11/12 05:32:24;;;;;;;11.63;8.38;;;;;;;5.18;100.00;102972.00;5300382;28;20101;-76
2022/11/12 05:34:55;;;;;;;10.95;8.45;;;;;;;5.16;100.00;102963.41;5298004;28;20020;-75
2022/11/12 05:37:26;;;;;;;10.93;8.55;;;;;;;5.16;100.00;102954.75;5301001;28;20033;-75
2022/11/12 05:39:57;;;;;;;9.55;8.27;;;;;;;5.19;100.00;102960.72;5301074;28;20132;-75
2022/11/12 05:42:29;;;;;;;10.77;8.35;;;;;;;5.17;100.00;102966.84;5299728;28;20030;-75
2022/11/12 05:45:00;;;;;;;10.60;8.45;;;;;;;5.09;100.00;102962.72;5297413;28;20489;-75
2022/11/12 05:47:31;;;;;;;9.88;7.93;;;;;;;5.09;100.00;102967.06;5299267;28;20441;-75
2022/11/12 05:50:03;;;;;;;10.55;7.93;;;;;;;5.08;100.00;102968.81;5300830;28;20454;-75
2022/11/12 05:52:34;;;;;;;14.90;8.48;;;;;;;5.04;100.00;102961.16;5298309;28;20020;-75
2022/11/12 05:55:06;;;;;;;11.55;8.13;;;;;;;5.03;100.00;102965.47;5299439;28;20032;-75
2022/11/12 05:57:37;;;;;;;10.75;8.45;;;;;;;5.00;100.00;102962.09;5300115;28;20069;-75
2022/11/12 06:00:09;;;;;;;10.27;7.90;;;;;;;5.01;100.00;102962.06;5299565;28;20028;-75
2022/11/12 06:02:40;;;;;;;9.73;8.07;;;;;;;5.04;100.00;102961.16;5300538;28;20043;-75
2022/11/12 06:05:11;;;;;;;11.05;7.72;;;;;;;5.09;100.00;102960.13;5299831;28;20012;-75
2022/11/12 06:07:43;;;;;;;12.32;8.77;;;;;;;5.04;100.00;102955.97;5298907;28;20048;-75
2022/11/12 06:10:14;;;;;;;9.25;7.93;;;;;;;5.04;100.00;102958.56;5300601;28;20020;-77
2022/11/12 06:12:45;;;;;;;11.75;8.50;;;;;;;4.96;100.00;102968.28;5278690;28;20031;-77
2022/11/12 06:15:17;;;;;;;9.45;7.75;;;;;;;5.00;100.00;102967.28;5299458;28;20022;-77
2022/11/12 06:17:49;;;;;;;10.88;8.32;;;;;;;4.91;100.00;102971.00;5299926;28;20036;-77
2022/11/12 06:20:21;;;;;;;10.55;8.13;;;;;;;4.88;100.00;102971.09;5297281;28;20031;-77
2022/11/12 06:22:53;;;;;;;11.18;7.78;;;;;;;4.89;100.00;102972.81;5299074;28;20057;-77
2022/11/12 06:25:24;;;;;;;11.32;8.25;;;;;;;4.82;100.00;102973.84;5298274;28;20059;-77
2022/11/12 06:27:55;;;;;;;11.45;8.38;;;;;;;4.87;100.00;102979.78;5299035;28;20032;-77
2022/11/12 06:30:27;;;;;;;12.57;8.68;;;;;;;4.83;100.00;102972.97;5300608;28;20059;-77
2022/11/12 06:32:58;;;;;;;10.75;8.10;;;;;;;4.79;100.00;102976.53;5298661;28;20047;-77
2022/11/12 06:35:29;;;;;;;9.68;7.78;;;;;;;4.82;100.00;102977.31;5297963;28;20549;-77
2022/11/12 06:38:00;;;;;;;11.90;7.95;;;;;;;4.87;100.00;102974.59;5297538;28;20036;-77
2022/11/12 06:40:32;;;;;;;10.38;8.20;;;;;;;4.91;100.00;102976.19;5299743;28;20507;-77
2022/11/12 06:43:03;;;;;;;10.35;7.78;;;;;;;4.95;100.00;102966.59;5298389;28;20477;-77
2022/11/12 06:45:36;;;;;;;9.52;7.80;;;;;;;4.99;100.00;102973.41;5297192;28;20024;-74
2022/11/12 06:48:07;;;;;;;9.50;7.47;;;;;;;4.95;100.00;102977.81;5274541;28;20469;-74
2022/11/12 06:50:38;;;;;;;11.20;8.15;;;;;;;4.89;100.00;102983.19;5297492;28;20042;-74
2022/11/12 06:53:09;;;;;;;10.05;7.60;;;;;;;4.97;100.00;102983.00;5273710;28;20134;-74
2022/11/12 06:55:41;;;;;;;10.45;7.35;;;;;;;4.99;100.00;102989.81;5293688;28;20027;-74
2022/11/12 06:58:12;;;;;;;10.07;7.18;;;;;;;4.97;100.00;102983.00;5295942;28;20043;-74
2022/11/12 07:00:43;;;;;;;10.63;8.05;;;;;;;4.88;100.00;102969.34;5296435;28;20035;-74
2022/11/12 07:03:15;;;;;;;9.98;7.93;;;;;;;4.97;100.00;102990.78;5292701;28;20497;-74
2022/11/12 07:05:46;;;;;;;10.55;8.55;;;;;;;4.98;100.00;102988.13;5297174;28;20032;-74
2022/11/12 07:08:17;;;;;;;10.35;7.93;;;;;;;4.97;100.00;102983.84;5298360;28;20046;-74
2022/11/12 07:10:48;;;;;;;10.48;8.05;;;;;;;5.00;100.00;102986.34;5296078;28;20130;-74
2022/11/12 07:13:20;;;;;;;10.05;7.80;;;;;;;5.00;100.00;102986.34;5296433;28;20020;-74
2022/11/12 07:15:51;;;;;;;11.55;7.93;;;;;;;5.00;100.00;102982.88;5296002;28;20066;-77
2022/11/12 07:18:22;;;;;;;12.38;8.43;;;;;;;5.03;100.00;102983.66;5297822;28;20024;-77
2022/11/12 07:20:58;;;;;;;9.63;7.45;;;;;;;5.17;100.00;102988.47;5297996;28;20054;-77
2022/11/12 07:23:31;;;;;;;10.25;8.32;;;;;;;5.08;100.00;102989.59;5295590;28;20422;-77
2022/11/12 07:26:11;;;;;;;10.60;7.78;;;;;;;5.18;100.00;102990.19;5295077;28;20484;-77
2022/11/12 07:28:43;;;;;;;8.27;7.28;;;;;;;5.11;100.00;102991.22;5296109;28;20043;-77
2022/11/12 07:31:16;;;;;;;11.00;8.13;;;;;;;5.18;100.00;102984.13;5297402;28;20031;-77
2022/11/12 07:33:48;;;;;;;11.05;7.85;;;;;;;5.20;100.00;102990.16;5297456;28;20024;-77
2022/11/12 07:36:20;;;;;;;9.73;7.57;;;;;;;5.24;100.00;102983.97;5299499;28;20024;-77
2022/11/12 07:38:53;;;;;;;11.50;8.13;;;;;;;5.20;100.00;102991.00;5297800;28;20028;-77
2022/11/12 07:41:24;;;;;;;12.38;8.02;;;;;;;5.27;100.00;102994.28;5298118;28;20044;-77
2022/11/12 07:43:56;;;;;;;9.70;7.88;;;;;;;5.25;100.00;102993.47;5297686;28;20047;-77
2022/11/12 07:46:27;;;;;;;11.80;8.55;;;;;;;5.32;100.00;102997.59;5298105;28;20020;-77
2022/11/12 07:48:58;;;;;;;12.27;8.70;;;;;;;5.32;100.00;102998.44;5298461;28;20035;-76
2022/11/12 07:51:29;;;;;;;10.68;7.93;;;;;;;5.37;100.00;103006.09;5297061;28;20035;-77
2022/11/12 07:54:01;;;;;;;9.88;8.13;;;;;;;5.41;100.00;103002.53;5295220;28;20370;-74
2022/11/12 07:56:32;;;;;;;9.63;7.97;;;;;;;5.48;100.00;103000.59;5279679;28;20122;-74
2022/11/12 07:59:03;;;;;;;12.63;8.43;;;;;;;5.59;100.00;103001.16;5298112;28;20023;-74
2022/11/12 08:01:39;;;;;;;13.85;8.98;;;;;;;5.66;100.00;103009.63;5296903;28;20110;-74
2022/11/12 08:04:11;;;;;;;11.52;8.55;;;;;;;5.67;100.00;103006.97;5298322;28;20032;-75
2022/11/12 08:06:42;;;;;;;12.63;9.10;;;;;;;5.69;100.00;103007.78;5297128;28;20492;-74
2022/11/12 08:09:13;;;;;;;11.15;8.32;;;;;;;5.74;100.00;103005.91;5298579;28;20027;-74
2022/11/12 08:11:44;;;;;;;10.57;8.27;;;;;;;5.78;100.00;102999.69;5298302;28;20465;-74
2022/11/12 08:14:16;;;;;;;13.32;8.95;;;;;;;5.85;100.00;103009.03;5298532;28;20825;-74
2022/11/12 08:16:47;;;;;;;11.55;8.85;;;;;;;5.91;100.00;103012.34;5297106;28;20050;-74
2022/11/12 08:19:18;;;;;;;12.13;8.88;;;;;;;5.91;100.00;103015.81;5296824;28;20657;-74
2022/11/12 08:21:50;;;;;;;13.32;9.27;;;;;;;6.02;100.00;103018.97;5293564;28;20481;-74
2022/11/12 08:24:21;;;;;;;12.05;9.00;;;;;;;6.08;100.00;103026.56;5296170;28;20028;-74
2022/11/12 08:26:52;;;;;;;13.05;9.45;;;;;;;6.08;100.00;103026.56;5295996;28;20513;-74
2022/11/12 08:29:25;;;;;;;13.95;9.80;;;;;;;6.15;100.00;103023.78;5295857;28;20044;-74
2022/11/12 08:31:56;;;;;;;13.68;9.25;;;;;;;6.22;100.00;103027.91;5294643;28;20024;-74
2022/11/12 08:34:27;;;;;;;11.00;9.02;;;;;;;6.28;100.00;103025.09;5297669;28;20024;-74
2022/11/12 08:36:59;;;;;;;13.93;10.00;;;;;;;6.32;100.00;103022.31;5293825;28;20032;-74
2022/11/12 08:39:30;;;;;;;11.52;9.18;;;;;;;6.44;100.00;103023.72;5294765;28;20043;-75
2022/11/12 08:42:02;;;;;;;13.05;10.35;;;;;;;6.55;100.00;103020.72;5295607;28;20040;-74
2022/11/12 08:44:33;;;;;;;15.02;10.30;;;;;;;6.68;100.00;103016.00;5298036;28;20039;-78
2022/11/12 08:47:04;;;;;;;13.02;9.15;;;;;;;6.78;100.00;103026.06;5297371;28;20481;-77
2022/11/12 08:49:35;;;;;;;12.18;9.68;;;;;;;6.90;100.00;103023.94;5289912;28;20463;-77
2022/11/12 08:52:07;;;;;;;12.65;9.20;;;;;;;6.96;100.00;103027.16;5293678;28;20020;-79
2022/11/12 08:54:38;;;;;;;14.15;9.68;;;;;;;7.04;100.00;103032.09;5293278;28;20036;-75
2022/11/12 08:57:09;;;;;;;13.88;9.55;;;;;;;7.12;100.00;103019.66;5294386;28;20024;-75
2022/11/12 08:59:40;;;;;;;12.15;9.23;;;;;;;7.14;100.00;103028.28;5295561;28;20074;-77
2022/11/12 09:02:12;;;;;;;14.02;10.35;;;;;;;7.18;100.00;103024.66;5295032;28;20047;-74
2022/11/12 09:04:44;;;;;;;13.30;9.90;;;;;;;7.28;100.00;103015.59;5293288;28;20055;-76
2022/11/12 09:07:15;;;;;;;12.82;10.52;;;;;;;7.30;100.00;103023.34;5294151;28;20029;-76
2022/11/12 09:09:46;;;;;;;13.10;9.90;;;;;;;7.51;100.00;103019.97;5294947;28;20218;-78
2022/11/12 09:12:18;;;;;;;14.65;9.82;;;;;;;7.60;100.00;103020.53;5275209;28;20423;-75
2022/11/12 09:14:50;;;;;;;13.05;9.80;;;;;;;7.79;100.00;103024.16;5295375;28;20024;-75
2022/11/12 09:17:21;;;;;;;12.55;9.90;;;;;;;7.84;100.00;103017.00;5296442;28;20028;-76
2022/11/12 09:19:52;;;;;;;18.33;10.32;;;;;;;7.98;100.00;103021.69;5268365;28;20119;-76
2022/11/12 09:22:24;;;;;;;13.57;9.70;;;;;;;8.04;100.00;103018.84;5293885;28;20397;-75
2022/11/12 09:24:55;;;;;;;11.95;9.27;;;;;;;8.08;100.00;103019.56;5296361;28;20109;-75
2022/11/12 09:27:27;;;;;;;13.48;9.40;;;;;;;8.27;100.00;103024.00;5296447;28;20043;-76
2022/11/12 09:29:58;;;;;;;15.70;9.02;;;;;;;8.35;100.00;103017.63;5292623;28;20067;-75
2022/11/12 09:32:29;;;;;;;11.73;9.68;;;;;;;8.55;100.00;103022.03;5290230;28;20024;-76
2022/11/12 09:35:01;;;;;;;12.95;8.45;;;;;;;8.71;100.00;103021.34;5291183;28;20012;-76
2022/11/12 09:37:32;;;;;;;11.27;8.70;;;;;;;8.80;100.00;103017.50;5294598;28;20035;-76
2022/11/12 09:40:05;;;;;;;11.45;8.13;;;;;;;8.89;100.00;103026.69;5294487;28;20096;-76
2022/11/12 09:42:37;;;;;;;;;;;;;;;9.33;100.00;103023.91;5292822;28;20035;-75
2022/11/12 09:45:28;;;;;;;11.85;8.90;;;;;;;9.19;100.00;103022.75;5293074;28;19924;-76
2022/11/12 09:48:06;;;;;;;10.82;9.25;;;;;;;9.19;100.00;103021.91;5294579;28;20031;-76
2022/11/12 09:50:45;;;;;;;14.02;9.15;;;;;;;9.28;100.00;103021.53;5290923;28;20043;-78
2022/11/12 09:53:28;;;;;;;11.93;8.82;;;;;;;9.37;100.00;103023.72;5294917;28;20035;-76
2022/11/12 09:56:05;;;;;;;11.98;8.98;;;;;;;9.59;100.00;103023.59;5296011;28;20047;-75
2022/11/12 09:58:36;;;;;;;10.25;8.32;;;;;;;9.49;100.00;103017.91;5275784;28;20036;-76
2022/11/12 10:01:17;;;;;;;12.75;9.70;;;;;;;9.64;100.00;103018.13;5295300;28;20039;-76
2022/11/12 10:03:59;;;;;;;12.20;9.52;;;;;;;9.65;100.00;103019.84;5300088;28;20065;-76
2022/11/12 10:06:42;;;;;;;13.57;10.00;;;;;;;9.80;100.00;103020.88;5298869;28;20024;-76
2022/11/12 10:09:21;;;;;;;15.35;11.55;;;;;;;9.89;100.00;103010.84;5299058;28;20500;-76
2022/11/12 10:12:30;;;;;;;12.32;10.63;;;;;;;9.75;100.00;103016.72;5297925;28;20119;-77
2022/11/12 10:18:41;;;;;;;10.38;8.68;;;;;;;10.23;100.00;103007.47;5300407;28;20126;-76
2022/11/12 10:21:15;;;;;;;13.05;9.60;;;;;;;10.28;100.00;103006.41;5298184;28;20038;-76
2022/11/12 10:23:51;;;;;;;12.95;9.70;;;;;;;10.42;100.00;103010.06;5296174;28;20024;-76
2022/11/12 10:26:24;;;;;;;10.65;8.43;;;;;;;10.50;100.00;103009.69;5297875;28;20538;-76
2022/11/12 10:29:17;;;;;;;10.02;8.95;;;;;;;10.67;100.00;103009.66;5298676;28;20028;-76
2022/11/12 10:31:48;;;;;;;15.07;8.45;;;;;;;10.85;100.00;102999.16;5295780;28;20054;-76
2022/11/12 10:34:23;;;;;;;11.38;7.95;;;;;;;10.88;100.00;103005.09;5299985;28;20036;-76
2022/11/12 10:37:03;;;;;;;11.45;8.43;;;;;;;11.01;100.00;103001.84;5299335;28;20040;-77
2022/11/12 10:39:40;;;;;;;11.43;8.23;;;;;;;11.30;100.00;103003.78;5277951;28;20170;-77
2022/11/12 10:42:14;;;;;;;11.68;8.68;;;;;;;11.32;100.00;102999.28;5295030;28;20536;-76
2022/11/12 10:44:46;;;;;;;11.15;8.38;;;;;;;11.38;100.00;102985.00;5291667;28;20509;-76
2022/11/12 10:47:25;;;;;;;9.57;7.60;;;;;;;11.71;100.00;103003.31;5297002;28;20059;-76
2022/11/12 10:50:07;;;;;;;8.80;7.65;;;;;;;11.81;100.00;102988.72;5297286;28;20038;-78
2022/11/12 10:52:51;;;;;;;12.25;6.80;;;;;;;11.79;100.00;102971.38;5293228;28;20031;-79
2022/11/12 10:55:34;;;;;;;8.27;6.43;;;;;;;12.09;100.00;102988.06;5299365;28;20028;-79
2022/11/12 10:58:08;;;;;;;9.07;7.05;;;;;;;12.13;100.00;102992.22;5277711;28;20032;-80
2022/11/12 11:00:52;;;;;;;9.13;6.85;;;;;;;12.25;100.00;102987.19;5298561;28;20039;-79
2022/11/12 11:03:28;;;;;;;6.95;6.25;;;;;;;12.21;100.00;102981.25;5277693;28;20516;-79
2022/11/12 11:06:03;;;;;;;9.15;7.13;;;;;;;12.44;100.00;102964.16;5294067;28;20043;-80
2022/11/12 11:08:41;;;;;;;8.02;6.30;;;;;;;12.54;100.00;102973.19;5298233;28;20504;-79
2022/11/12 11:11:15;;;;;;;10.30;6.95;;;;;;;12.65;100.00;102968.16;5298675;28;20111;-80
2022/11/12 11:13:49;;;;;;;10.98;6.65;;;;;;;12.70;100.00;102972.28;5295111;28;20029;-80
2022/11/12 11:16:24;;;;;;;8.02;7.13;;;;;;;12.68;100.00;102969.72;5276489;28;20860;-77
2022/11/12 11:18:58;;;;;;;8.25;6.05;;;;;;;12.91;100.00;102969.19;5265996;28;20043;-78
2022/11/12 11:21:47;;;;;;;9.32;6.35;;;;;;;13.13;100.00;102970.50;5286355;28;20032;-75
2022/11/12 11:24:36;;;;;;;9.80;6.63;;;;;;;13.13;100.00;102973.13;5283852;28;20277;-76
2022/11/12 11:27:29;;;;;;;8.75;6.47;;;;;;;13.31;100.00;102965.91;5286367;28;20465;-76
2022/11/12 11:30:11;;;;;;;8.98;6.10;;;;;;;13.31;100.00;102964.13;5286402;28;20495;-79
2022/11/12 11:32:56;;;;;;;10.45;5.57;;;;;;;13.47;100.00;102957.91;5288123;28;20036;-77
2022/11/12 11:35:42;;;;;;;7.53;6.13;;;;;;;13.65;100.00;102964.63;5286050;28;20489;-75
2022/11/12 11:38:56;;;;;;;7.25;5.45;;;;;;;13.90;100.00;102958.59;5288303;28;20031;-76
2022/11/12 11:41:37;;;;;;;7.00;5.03;;;;;;;13.77;100.00;102958.56;5201259;28;20049;-76
2022/11/12 11:44:30;;;;;;;9.07;5.53;;;;;;;13.88;100.00;102955.25;5281343;28;20126;-76
2022/11/12 11:47:18;;;;;;;9.47;5.80;;;;;;;13.85;100.00;102945.72;5285613;28;20034;-75
2022/11/12 11:50:21;;;;;;;10.95;6.90;;;;;;;14.27;100.00;102935.09;5284312;28;20389;-74
2022/11/12 11:53:14;;;;;;;8.30;5.60;;;;;;;14.04;100.00;102941.91;5285280;28;20079;-74
2022/11/12 11:55:56;;;;;;;10.98;7.40;;;;;;;14.19;100.00;102938.25;5285104;28;20055;-75
2022/11/12 11:58:36;;;;;;;7.07;4.53;;;;;;;14.32;100.00;102938.28;5285838;28;20120;-77
2022/11/12 12:01:58;;;;;;;10.45;5.18;;;;;;;14.58;100.00;102925.97;5285337;28;20032;-76
2022/11/12 12:04:38;;;;;;;7.65;5.22;;;;;;;14.49;100.00;102922.19;5223505;28;20063;-74
2022/11/12 12:07:18;;;;;;;5.32;4.22;;;;;;;14.53;100.00;102920.16;5284861;28;20044;-74